Time;durP1;ratioP1;P1;durP2;ratioP2;P2;SDS_P1;SDS_P2;PMS_P1;PMS_P2;Temp;Humidity;BMP_temperature;BMP_pressure;BME280_temperature;BME280_humidity;BME280_pressure;Samples;Min_cycle;Max_cycle;Signal;HPM_P1;HPM_P2
2021/10/17 00:00:44;;;;;;;30.83;9.88;;;;;;;;;;5084901;28;20438;-65
2021/10/17 00:03:09;;;;;;;26.73;9.60;;;;;;;;;;5087065;28;20035;-63
2021/10/17 00:05:34;;;;;;;21.75;8.73;;;;;;;;;;5091510;28;20258;-64
2021/10/17 00:07:59;;;;;;;22.08;8.90;;;;;;;;;;5093257;28;20032;-63
2021/10/17 00:10:27;;;;;;;20.90;8.18;;;;;;;;;;5086997;28;20028;-63
2021/10/17 00:12:53;;;;;;;20.80;6.68;;;;;;;;;;5077374;28;20515;-64
2021/10/17 00:15:20;;;;;;;21.02;7.63;;;;;;;;;;5073264;28;20448;-64
2021/10/17 00:17:45;;;;;;;25.10;8.45;;;;;;;;;;5082888;28;20103;-64
2021/10/17 00:20:12;;;;;;;26.58;8.45;;;;;;;;;;5093450;28;20421;-63
2021/10/17 00:22:38;;;;;;;23.45;9.10;;;;;;;;;;5090312;28;20028;-64
2021/10/17 00:25:04;;;;;;;19.60;9.13;;;;;;;;;;5072491;28;20080;-64
2021/10/17 00:27:29;;;;;;;28.50;9.95;;;;;;;;;;5073245;28;20513;-66
2021/10/17 00:29:55;;;;;;;26.33;9.10;;;;;;;;;;5072892;28;20027;-64
2021/10/17 00:32:20;;;;;;;24.77;9.18;;;;;;;;;;5086727;28;20028;-63
2021/10/17 00:34:45;;;;;;;15.63;8.30;;;;;;;;;;5092568;28;20020;-65
2021/10/17 00:37:10;;;;;;;27.42;9.40;;;;;;;;;;5084449;28;20050;-64
2021/10/17 00:39:35;;;;;;;23.95;9.23;;;;;;;;;;5070227;28;20028;-64
2021/10/17 00:42:04;;;;;;;25.63;9.27;;;;;;;;;;5072253;28;20028;-64
2021/10/17 00:44:29;;;;;;;15.35;8.75;;;;;;;;;;5072579;28;20025;-65
2021/10/17 00:46:54;;;;;;;21.25;9.40;;;;;;;;;;5082047;28;20023;-64
2021/10/17 00:49:19;;;;;;;21.48;8.48;;;;;;;;;;5092661;28;20024;-63
2021/10/17 00:51:45;;;;;;;19.25;9.55;;;;;;;;;;5082797;28;20032;-64
2021/10/17 00:54:11;;;;;;;22.52;9.20;;;;;;;;;;5072472;28;20066;-64
2021/10/17 00:56:36;;;;;;;21.52;9.57;;;;;;;;;;5072608;28;20025;-63
2021/10/17 00:59:03;;;;;;;24.70;9.45;;;;;;;;;;5072219;28;20025;-63
2021/10/17 01:01:28;;;;;;;18.13;8.32;;;;;;;;;;5071868;28;20501;-65
2021/10/17 01:03:53;;;;;;;16.17;9.10;;;;;;;;;;5071686;28;20054;-64
2021/10/17 01:06:19;;;;;;;28.60;8.67;;;;;;;;;;5072003;28;20032;-64
2021/10/17 01:08:45;;;;;;;19.67;8.32;;;;;;;;;;5071741;28;20262;-63
2021/10/17 01:11:10;;;;;;;28.50;9.63;;;;;;;;;;5078218;28;20020;-64
2021/10/17 01:13:36;;;;;;;26.98;8.95;;;;;;;;;;5085015;28;20578;-64
2021/10/17 01:16:01;;;;;;;23.45;9.45;;;;;;;;;;5071830;28;20032;-64
2021/10/17 01:18:26;;;;;;;16.25;9.02;;;;;;;;;;5084810;28;20495;-63
2021/10/17 01:20:52;;;;;;;25.95;8.73;;;;;;;;;;5076640;28;20084;-63
2021/10/17 01:23:18;;;;;;;27.42;10.70;;;;;;;;;;5071790;28;20602;-65
2021/10/17 01:25:43;;;;;;;22.83;9.02;;;;;;;;;;5071184;28;20028;-66
2021/10/17 01:28:09;;;;;;;20.88;9.30;;;;;;;;;;5053652;28;20465;-66
2021/10/17 01:30:34;;;;;;;18.85;10.32;;;;;;;;;;5071749;28;20516;-66
2021/10/17 01:32:59;;;;;;;22.95;9.50;;;;;;;;;;5071260;28;20021;-65
2021/10/17 01:35:25;;;;;;;23.10;9.63;;;;;;;;;;5071716;28;20095;-66
2021/10/17 01:37:50;;;;;;;21.65;9.50;;;;;;;;;;5070865;28;20080;-66
2021/10/17 01:40:15;;;;;;;21.83;8.95;;;;;;;;;;5071604;28;20074;-66
2021/10/17 01:42:40;;;;;;;18.40;9.15;;;;;;;;;;5071131;28;20480;-66
2021/10/17 01:45:06;;;;;;;27.55;9.10;;;;;;;;;;5071257;28;20020;-64
2021/10/17 01:47:31;;;;;;;19.92;9.20;;;;;;;;;;5071182;28;20031;-66
2021/10/17 01:49:56;;;;;;;22.88;10.23;;;;;;;;;;5071066;28;20013;-65
2021/10/17 01:52:21;;;;;;;24.15;9.13;;;;;;;;;;5069640;28;20024;-66
2021/10/17 01:54:47;;;;;;;21.95;9.73;;;;;;;;;;5078336;28;20052;-66
2021/10/17 01:57:12;;;;;;;25.45;9.68;;;;;;;;;;5071189;28;20043;-64
2021/10/17 01:59:37;;;;;;;20.70;8.95;;;;;;;;;;5071017;28;20012;-65
2021/10/17 02:02:02;;;;;;;17.25;8.35;;;;;;;;;;5070582;28;20032;-65
2021/10/17 02:04:27;;;;;;;18.35;8.73;;;;;;;;;;5071060;28;20419;-65
2021/10/17 02:06:53;;;;;;;22.60;8.38;;;;;;;;;;5070580;28;20029;-65
2021/10/17 02:09:18;;;;;;;22.63;8.63;;;;;;;;;;5069789;28;20016;-66
2021/10/17 02:11:43;;;;;;;22.85;8.48;;;;;;;;;;5070482;28;20028;-62
2021/10/17 02:14:08;;;;;;;26.40;8.43;;;;;;;;;;5070403;28;20037;-66
2021/10/17 02:16:34;;;;;;;24.17;9.05;;;;;;;;;;5070894;28;20017;-67
2021/10/17 02:18:59;;;;;;;17.02;9.32;;;;;;;;;;5070614;28;20122;-64
2021/10/17 02:21:24;;;;;;;19.40;8.38;;;;;;;;;;5063684;28;20032;-64
2021/10/17 02:23:49;;;;;;;22.27;8.75;;;;;;;;;;5070560;28;20099;-63
2021/10/17 02:26:14;;;;;;;20.65;9.27;;;;;;;;;;5070624;28;20457;-64
2021/10/17 02:28:40;;;;;;;27.98;8.90;;;;;;;;;;5070652;28;20074;-64
2021/10/17 02:31:05;;;;;;;26.75;10.25;;;;;;;;;;5070574;28;20476;-64
2021/10/17 02:33:30;;;;;;;23.08;9.00;;;;;;;;;;5070250;28;20028;-64
2021/10/17 02:35:55;;;;;;;29.75;8.40;;;;;;;;;;5070208;28;20032;-64
2021/10/17 02:38:21;;;;;;;27.77;10.23;;;;;;;;;;5070427;28;20021;-64
2021/10/17 02:40:46;;;;;;;22.50;8.77;;;;;;;;;;5070183;28;20028;-64
2021/10/17 02:43:11;;;;;;;24.85;9.25;;;;;;;;;;5070016;28;20032;-64
2021/10/17 02:45:36;;;;;;;24.13;9.30;;;;;;;;;;5070484;28;20095;-63
2021/10/17 02:48:02;;;;;;;24.85;8.30;;;;;;;;;;5070300;28;20502;-64
2021/10/17 02:50:27;;;;;;;27.13;10.80;;;;;;;;;;5070286;28;20024;-64
2021/10/17 02:52:52;;;;;;;19.40;8.50;;;;;;;;;;5070049;28;20025;-65
2021/10/17 02:55:17;;;;;;;21.05;10.00;;;;;;;;;;5070199;28;20765;-64
2021/10/17 02:57:42;;;;;;;23.60;8.80;;;;;;;;;;5070227;28;20477;-64
2021/10/17 03:00:08;;;;;;;26.60;8.95;;;;;;;;;;5070420;28;20027;-64
2021/10/17 03:02:33;;;;;;;18.83;8.98;;;;;;;;;;5071028;28;20028;-64
2021/10/17 03:04:58;;;;;;;25.27;9.23;;;;;;;;;;5074095;28;20029;-66
2021/10/17 03:07:23;;;;;;;18.17;8.13;;;;;;;;;;5074625;28;20086;-63
2021/10/17 03:09:49;;;;;;;26.02;9.30;;;;;;;;;;5074187;28;20473;-65
2021/10/17 03:12:14;;;;;;;19.60;8.68;;;;;;;;;;5074141;28;20055;-63
2021/10/17 03:14:39;;;;;;;24.63;8.57;;;;;;;;;;5074175;28;20078;-65
2021/10/17 03:17:06;;;;;;;23.40;8.95;;;;;;;;;;5074144;28;20025;-63
2021/10/17 03:19:31;;;;;;;20.95;9.05;;;;;;;;;;5073786;28;20102;-65
2021/10/17 03:21:56;;;;;;;19.58;8.32;;;;;;;;;;5073675;28;20013;-64
2021/10/17 03:24:22;;;;;;;13.30;7.63;;;;;;;;;;5073607;28;20389;-64
2021/10/17 03:26:47;;;;;;;19.02;8.45;;;;;;;;;;5073854;28;20453;-64
2021/10/17 03:29:12;;;;;;;24.03;9.67;;;;;;;;;;5073863;28;20013;-64
2021/10/17 03:31:38;;;;;;;24.75;7.88;;;;;;;;;;5073957;28;20734;-65
2021/10/17 03:34:04;;;;;;;26.65;8.63;;;;;;;;;;5073206;28;20054;-64
2021/10/17 03:36:29;;;;;;;19.48;9.18;;;;;;;;;;5073751;28;20103;-64
2021/10/17 03:38:54;;;;;;;24.20;8.30;;;;;;;;;;5073259;28;20020;-65
2021/10/17 03:41:19;;;;;;;18.17;7.83;;;;;;;;;;5073449;28;20067;-64
2021/10/17 03:43:45;;;;;;;25.58;9.27;;;;;;;;;;5073234;28;20765;-64
2021/10/17 03:46:10;;;;;;;24.63;9.60;;;;;;;;;;5073596;28;20028;-65
2021/10/17 03:48:35;;;;;;;25.67;9.30;;;;;;;;;;5073259;28;20021;-64
2021/10/17 03:51:00;;;;;;;20.77;9.38;;;;;;;;;;5073487;28;20027;-65
2021/10/17 03:53:26;;;;;;;25.05;8.63;;;;;;;;;;5073338;28;20404;-64
2021/10/17 03:55:51;;;;;;;23.95;7.82;;;;;;;;;;5072674;28;20034;-64
2021/10/17 03:58:16;;;;;;;28.13;9.85;;;;;;;;;;5073048;28;20028;-64
2021/10/17 04:00:41;;;;;;;23.73;8.30;;;;;;;;;;5073051;28;20385;-64
2021/10/17 04:03:06;;;;;;;24.65;9.05;;;;;;;;;;5072907;28;20040;-65
2021/10/17 04:05:32;;;;;;;18.70;8.90;;;;;;;;;;5073299;28;20081;-63
2021/10/17 04:07:57;;;;;;;22.83;8.88;;;;;;;;;;5073052;28;20087;-64
2021/10/17 04:10:22;;;;;;;22.83;9.07;;;;;;;;;;5072988;28;20032;-64
2021/10/17 04:12:47;;;;;;;26.02;8.93;;;;;;;;;;5072672;28;20035;-64
2021/10/17 04:15:12;;;;;;;16.80;9.23;;;;;;;;;;5070397;28;20021;-64
2021/10/17 04:17:38;;;;;;;25.58;9.57;;;;;;;;;;5072794;28;20443;-64
2021/10/17 04:20:03;;;;;;;27.02;8.95;;;;;;;;;;5072841;28;20111;-64
2021/10/17 04:22:29;;;;;;;14.45;7.72;;;;;;;;;;5072623;28;20029;-64
2021/10/17 04:24:54;;;;;;;23.40;8.73;;;;;;;;;;5072658;28;20024;-63
2021/10/17 04:27:19;;;;;;;23.65;8.18;;;;;;;;;;5072949;28;20380;-64
2021/10/17 04:29:44;;;;;;;15.38;8.13;;;;;;;;;;5071449;28;20078;-64
2021/10/17 04:32:10;;;;;;;18.65;8.20;;;;;;;;;;5072397;28;20027;-65
2021/10/17 04:34:35;;;;;;;24.17;9.00;;;;;;;;;;5072907;28;20553;-64
2021/10/17 04:37:01;;;;;;;27.98;9.65;;;;;;;;;;5073077;28;20074;-63
2021/10/17 04:39:26;;;;;;;22.25;9.30;;;;;;;;;;5072784;28;20077;-63
2021/10/17 04:41:52;;;;;;;25.48;8.68;;;;;;;;;;5072384;28;20025;-63
2021/10/17 04:44:17;;;;;;;25.70;8.98;;;;;;;;;;5071874;28;20025;-64
2021/10/17 04:46:42;;;;;;;28.20;9.73;;;;;;;;;;5072401;28;20102;-65
2021/10/17 04:49:07;;;;;;;20.00;9.02;;;;;;;;;;5072353;28;20643;-63
2021/10/17 04:51:33;;;;;;;18.45;8.25;;;;;;;;;;5072442;28;20032;-64
2021/10/17 04:53:58;;;;;;;28.30;7.35;;;;;;;;;;5071412;28;20029;-63
2021/10/17 04:56:23;;;;;;;16.52;7.18;;;;;;;;;;5072016;28;20036;-64
2021/10/17 04:58:48;;;;;;;21.15;7.85;;;;;;;;;;5071276;28;20099;-64
2021/10/17 05:01:14;;;;;;;19.85;7.88;;;;;;;;;;5072153;28;20469;-65
2021/10/17 05:03:39;;;;;;;20.60;8.27;;;;;;;;;;5071610;28;20025;-64
2021/10/17 05:06:04;;;;;;;19.30;7.88;;;;;;;;;;5072122;28;20362;-65
2021/10/17 05:08:30;;;;;;;27.33;8.25;;;;;;;;;;5053776;28;20078;-64
2021/10/17 05:10:55;;;;;;;13.48;8.18;;;;;;;;;;5071973;28;20076;-65
2021/10/17 05:13:20;;;;;;;23.67;8.95;;;;;;;;;;5071466;28;20477;-63
2021/10/17 05:15:45;;;;;;;17.05;8.10;;;;;;;;;;5071887;28;20021;-64
2021/10/17 05:18:10;;;;;;;19.27;8.18;;;;;;;;;;5071666;28;20397;-64
2021/10/17 05:20:36;;;;;;;25.02;8.43;;;;;;;;;;5071970;28;20020;-64
2021/10/17 05:23:01;;;;;;;21.05;7.80;;;;;;;;;;5071599;28;20047;-63
2021/10/17 05:25:26;;;;;;;22.83;8.40;;;;;;;;;;5065072;28;20029;-63
2021/10/17 05:27:52;;;;;;;21.88;8.82;;;;;;;;;;5070520;28;20480;-66
2021/10/17 05:30:17;;;;;;;20.55;9.02;;;;;;;;;;5071173;28;20092;-64
2021/10/17 05:32:42;;;;;;;20.45;8.35;;;;;;;;;;5067599;28;20024;-66
2021/10/17 05:35:07;;;;;;;21.75;9.88;;;;;;;;;;5066414;28;20103;-64
2021/10/17 05:37:33;;;;;;;22.27;8.43;;;;;;;;;;5071172;28;20103;-65
2021/10/17 05:39:58;;;;;;;21.45;8.60;;;;;;;;;;5071290;28;20420;-64
2021/10/17 05:42:23;;;;;;;21.83;8.80;;;;;;;;;;5070799;28;20075;-64
2021/10/17 05:44:48;;;;;;;19.88;9.52;;;;;;;;;;5071002;28;20603;-64
2021/10/17 05:47:13;;;;;;;22.80;8.80;;;;;;;;;;5070868;28;20443;-66
2021/10/17 05:49:39;;;;;;;19.20;7.93;;;;;;;;;;5070648;28;20259;-65
2021/10/17 05:52:05;;;;;;;21.63;7.85;;;;;;;;;;5061901;28;20092;-64
2021/10/17 05:54:30;;;;;;;19.20;8.10;;;;;;;;;;5058255;28;20025;-65
2021/10/17 05:56:55;;;;;;;20.13;8.57;;;;;;;;;;5070345;28;20028;-65
2021/10/17 05:59:20;;;;;;;16.50;7.50;;;;;;;;;;5070979;28;20447;-65
2021/10/17 06:01:46;;;;;;;14.63;7.32;;;;;;;;;;5070935;28;20020;-66
2021/10/17 06:04:11;;;;;;;16.92;8.00;;;;;;;;;;5070656;28;20020;-64
2021/10/17 06:06:42;;;;;;;15.32;6.80;;;;;;;;;;5070927;28;20492;-65
2021/10/17 06:09:08;;;;;;;21.00;7.20;;;;;;;;;;5070557;28;20485;-65
2021/10/17 06:11:33;;;;;;;23.27;8.63;;;;;;;;;;5054100;28;20031;-64
2021/10/17 06:13:58;;;;;;;18.15;7.88;;;;;;;;;;5067738;28;20139;-64
2021/10/17 06:16:23;;;;;;;19.65;8.30;;;;;;;;;;5070725;28;20453;-63
2021/10/17 06:18:49;;;;;;;17.52;7.50;;;;;;;;;;5070738;28;20024;-63
2021/10/17 06:21:14;;;;;;;17.10;7.10;;;;;;;;;;5070596;28;20035;-66
2021/10/17 06:23:39;;;;;;;15.02;7.80;;;;;;;;;;5069974;28;20436;-63
2021/10/17 06:26:04;;;;;;;15.52;8.20;;;;;;;;;;5070510;28;20016;-64
2021/10/17 06:28:29;;;;;;;19.60;8.45;;;;;;;;;;5063997;28;20021;-64
2021/10/17 06:30:55;;;;;;;23.90;8.40;;;;;;;;;;5050553;28;20017;-64
2021/10/17 06:33:20;;;;;;;18.35;8.50;;;;;;;;;;5050218;28;20021;-65
2021/10/17 06:35:45;;;;;;;29.73;9.35;;;;;;;;;;5050716;28;20389;-64
2021/10/17 06:38:10;;;;;;;25.58;9.20;;;;;;;;;;5052848;28;20070;-65
2021/10/17 06:40:35;;;;;;;18.98;9.00;;;;;;;;;;5054647;28;20079;-67
2021/10/17 06:43:02;;;;;;;20.42;8.30;;;;;;;;;;5050191;28;20029;-65
2021/10/17 06:45:27;;;;;;;21.77;7.68;;;;;;;;;;5050756;28;20025;-64
2021/10/17 06:47:53;;;;;;;18.80;7.22;;;;;;;;;;5062025;28;20541;-65
2021/10/17 06:50:20;;;;;;;15.45;6.25;;;;;;;;;;5057303;28;20417;-64
2021/10/17 06:52:46;;;;;;;15.88;7.05;;;;;;;;;;5053104;28;20028;-65
2021/10/17 06:55:11;;;;;;;18.10;7.10;;;;;;;;;;5061765;28;20500;-65
2021/10/17 06:57:36;;;;;;;20.53;7.13;;;;;;;;;;5069649;28;20021;-65
2021/10/17 07:00:02;;;;;;;19.13;8.18;;;;;;;;;;5060182;28;20366;-65
2021/10/17 07:02:27;;;;;;;17.77;8.43;;;;;;;;;;5059799;28;20021;-64
2021/10/17 07:04:52;;;;;;;20.92;9.18;;;;;;;;;;5056812;28;20024;-64
2021/10/17 07:07:17;;;;;;;20.05;9.05;;;;;;;;;;5049941;28;20053;-65
2021/10/17 07:09:42;;;;;;;14.63;7.63;;;;;;;;;;5047671;28;20462;-65
2021/10/17 07:12:08;;;;;;;15.90;6.97;;;;;;;;;;5046981;28;20029;-65
2021/10/17 07:14:33;;;;;;;24.42;6.90;;;;;;;;;;5047757;28;20033;-65
2021/10/17 07:16:58;;;;;;;16.58;6.65;;;;;;;;;;5055984;28;20541;-65
2021/10/17 07:19:23;;;;;;;15.48;6.40;;;;;;;;;;5067483;28;20042;-66
2021/10/17 07:21:48;;;;;;;22.45;7.50;;;;;;;;;;5067227;28;20043;-66
2021/10/17 07:24:14;;;;;;;16.83;7.43;;;;;;;;;;5067135;28;20031;-66
2021/10/17 07:26:39;;;;;;;18.70;7.53;;;;;;;;;;5058737;28;20632;-66
2021/10/17 07:29:04;;;;;;;16.20;6.72;;;;;;;;;;5062289;28;20365;-67
2021/10/17 07:31:29;;;;;;;14.87;6.77;;;;;;;;;;5056452;28;20102;-66
2021/10/17 07:33:54;;;;;;;21.08;7.78;;;;;;;;;;5069157;28;20285;-66
2021/10/17 07:36:21;;;;;;;33.75;7.88;;;;;;;;;;5062096;28;20024;-66
2021/10/17 07:38:46;;;;;;;17.35;8.07;;;;;;;;;;5053098;28;20103;-68
2021/10/17 07:41:11;;;;;;;12.85;6.80;;;;;;;;;;5070017;28;20594;-64
2021/10/17 07:43:36;;;;;;;20.23;7.25;;;;;;;;;;5069725;28;20024;-67
2021/10/17 07:46:02;;;;;;;19.93;6.83;;;;;;;;;;5069633;28;20095;-65
2021/10/17 07:48:28;;;;;;;18.38;7.25;;;;;;;;;;5070759;28;20743;-65
2021/10/17 07:50:53;;;;;;;11.55;5.93;;;;;;;;;;5065816;28;20009;-66
2021/10/17 07:53:18;;;;;;;15.63;6.83;;;;;;;;;;5065772;28;20150;-65
2021/10/17 07:55:44;;;;;;;20.57;6.60;;;;;;;;;;5069724;28;21018;-64
2021/10/17 07:58:09;;;;;;;14.43;6.20;;;;;;;;;;5065843;28;20321;-67
2021/10/17 08:00:34;;;;;;;12.27;5.88;;;;;;;;;;5059539;28;20597;-65
2021/10/17 08:02:59;;;;;;;13.07;6.07;;;;;;;;;;5068766;28;20023;-67
2021/10/17 08:05:25;;;;;;;19.93;6.20;;;;;;;;;;5064993;28;20292;-64
2021/10/17 08:07:50;;;;;;;12.75;5.70;;;;;;;;;;5061009;28;20259;-65
2021/10/17 08:10:15;;;;;;;11.18;5.93;;;;;;;;;;5071742;28;20017;-62
2021/10/17 08:12:41;;;;;;;11.27;5.85;;;;;;;;;;5066131;28;20024;-64
2021/10/17 08:15:06;;;;;;;12.10;5.60;;;;;;;;;;5064524;28;20060;-63
2021/10/17 08:17:32;;;;;;;14.68;5.47;;;;;;;;;;5065275;28;20043;-64
2021/10/17 08:19:57;;;;;;;13.57;6.13;;;;;;;;;;5067491;28;20089;-63
2021/10/17 08:22:23;;;;;;;9.98;5.20;;;;;;;;;;5067455;28;20032;-63
2021/10/17 08:24:48;;;;;;;10.93;5.35;;;;;;;;;;5070867;28;20020;-63
2021/10/17 08:27:14;;;;;;;9.85;5.28;;;;;;;;;;5065037;28;20020;-65
2021/10/17 08:29:39;;;;;;;14.75;5.40;;;;;;;;;;5058902;28;20021;-68
2021/10/17 08:32:04;;;;;;;19.80;5.30;;;;;;;;;;5066819;28;20385;-66
2021/10/17 08:34:29;;;;;;;19.25;5.65;;;;;;;;;;5063409;28;20403;-67
2021/10/17 08:36:55;;;;;;;10.90;5.20;;;;;;;;;;5069058;28;20024;-68
2021/10/17 08:39:20;;;;;;;14.37;4.90;;;;;;;;;;5069910;28;20032;-68
2021/10/17 08:41:46;;;;;;;17.17;5.03;;;;;;;;;;5065956;28;20266;-68
2021/10/17 08:44:12;;;;;;;11.38;4.95;;;;;;;;;;5065531;28;20274;-67
2021/10/17 08:46:38;;;;;;;30.33;7.22;;;;;;;;;;5068181;28;20473;-67
2021/10/17 08:49:04;;;;;;;13.65;5.53;;;;;;;;;;5070891;28;20043;-65
2021/10/17 08:51:29;;;;;;;16.83;5.47;;;;;;;;;;5070587;28;20024;-68
2021/10/17 08:53:54;;;;;;;12.57;5.00;;;;;;;;;;5071270;28;20089;-66
2021/10/17 08:56:19;;;;;;;19.50;5.75;;;;;;;;;;5065300;28;20283;-66
2021/10/17 08:58:45;;;;;;;13.77;5.15;;;;;;;;;;5067960;28;20023;-66
2021/10/17 09:01:11;;;;;;;9.27;4.15;;;;;;;;;;5069986;28;20029;-66
2021/10/17 09:03:36;;;;;;;14.02;5.03;;;;;;;;;;5071820;28;20396;-68
2021/10/17 09:06:22;;;;;;;9.20;4.97;;;;;;;;;;5072050;28;20098;-67
2021/10/17 09:08:55;;;;;;;11.13;4.47;;;;;;;;;;5071593;28;20362;-66
2021/10/17 09:11:34;;;;;;;11.88;4.55;;;;;;;;;;5071783;28;20560;-65
2021/10/17 09:14:07;;;;;;;12.85;4.63;;;;;;;;;;5053181;28;20055;-67
2021/10/17 09:16:39;;;;;;;10.32;4.60;;;;;;;;;;5068476;28;20016;-66
2021/10/17 09:19:08;;;;;;;7.85;3.90;;;;;;;;;;5070725;28;20025;-67
2021/10/17 09:21:34;;;;;;;11.18;4.97;;;;;;;;;;5071689;28;20124;-66
2021/10/17 09:23:59;;;;;;;15.13;5.22;;;;;;;;;;5071165;28;20099;-67
2021/10/17 09:26:24;;;;;;;14.05;5.38;;;;;;;;;;5071807;28;20372;-66
2021/10/17 09:28:50;;;;;;;10.13;4.13;;;;;;;;;;5071868;28;20070;-67
2021/10/17 09:31:16;;;;;;;15.00;4.00;;;;;;;;;;5071728;28;20351;-67
2021/10/17 09:33:43;;;;;;;9.93;4.32;;;;;;;;;;5071470;28;20053;-67
2021/10/17 09:36:16;;;;;;;9.73;3.20;;;;;;;;;;5066814;28;20016;-66
2021/10/17 09:38:43;;;;;;;10.63;4.28;;;;;;;;;;5071072;28;20082;-66
2021/10/17 09:41:16;;;;;;;9.45;4.18;;;;;;;;;;5070979;28;20042;-67
2021/10/17 09:43:43;;;;;;;10.45;4.20;;;;;;;;;;5071195;28;20012;-67
2021/10/17 09:46:12;;;;;;;12.25;3.97;;;;;;;;;;5071060;28;20021;-67
2021/10/17 09:48:38;;;;;;;10.27;4.18;;;;;;;;;;5071289;28;20016;-67
2021/10/17 09:51:10;;;;;;;10.25;3.83;;;;;;;;;;5070963;28;20493;-66
2021/10/17 09:53:47;;;;;;;8.23;3.28;;;;;;;;;;5071208;28;20389;-64
2021/10/17 09:56:27;;;;;;;11.45;3.47;;;;;;;;;;5065101;28;20067;-63
2021/10/17 09:58:55;;;;;;;8.65;3.90;;;;;;;;;;5067517;28;20392;-65
2021/10/17 10:01:23;;;;;;;10.95;3.88;;;;;;;;;;5070585;28;20090;-64
2021/10/17 10:03:49;;;;;;;10.25;4.03;;;;;;;;;;5070221;28;20130;-65
2021/10/17 10:06:14;;;;;;;4.55;1.73;;;;;;;;;;5070334;28;20020;-65
2021/10/17 10:08:41;;;;;;;8.50;2.72;;;;;;;;;;5070199;28;20469;-65
2021/10/17 10:11:06;;;;;;;12.30;4.10;;;;;;;;;;5069916;28;20024;-66
2021/10/17 10:13:31;;;;;;;17.90;3.72;;;;;;;;;;5069105;28;20086;-66
2021/10/17 10:15:58;;;;;;;18.45;4.85;;;;;;;;;;5070315;28;20037;-66
2021/10/17 10:18:24;;;;;;;8.35;2.83;;;;;;;;;;5066416;28;20040;-65
2021/10/17 10:20:49;;;;;;;11.68;3.83;;;;;;;;;;5070148;28;20037;-66
2021/10/17 10:23:15;;;;;;;14.13;4.17;;;;;;;;;;5070571;28;20046;-64
2021/10/17 10:25:41;;;;;;;7.25;3.75;;;;;;;;;;5064208;28;20338;-66
2021/10/17 10:28:10;;;;;;;10.27;3.55;;;;;;;;;;5067574;28;20031;-66
2021/10/17 10:30:38;;;;;;;7.70;2.80;;;;;;;;;;5070981;28;20032;-67
2021/10/17 10:33:06;;;;;;;10.63;3.30;;;;;;;;;;5070621;28;20034;-66
2021/10/17 10:35:32;;;;;;;14.32;4.45;;;;;;;;;;5072265;28;20020;-66
2021/10/17 10:37:57;;;;;;;6.22;3.10;;;;;;;;;;5088204;28;20027;-66
2021/10/17 10:40:22;;;;;;;10.70;3.53;;;;;;;;;;5088513;28;20116;-66
2021/10/17 10:42:49;;;;;;;11.25;3.90;;;;;;;;;;5072178;28;20016;-66
2021/10/17 10:45:22;;;;;;;13.30;3.55;;;;;;;;;;5069491;28;20021;-67
2021/10/17 10:47:48;;;;;;;10.50;3.30;;;;;;;;;;5088756;28;20028;-67
2021/10/17 10:50:14;;;;;;;9.55;3.67;;;;;;;;;;5072863;28;20525;-67
2021/10/17 10:52:44;;;;;;;8.25;3.00;;;;;;;;;;5083518;28;20059;-66
2021/10/17 10:55:14;;;;;;;10.30;2.85;;;;;;;;;;5066096;28;20052;-66
2021/10/17 10:57:40;;;;;;;9.73;3.05;;;;;;;;;;5066092;28;20096;-67
2021/10/17 11:00:06;;;;;;;16.08;4.22;;;;;;;;;;5070961;28;20044;-66
2021/10/17 11:02:32;;;;;;;5.43;3.17;;;;;;;;;;5081537;28;20032;-65
2021/10/17 11:04:57;;;;;;;9.63;3.17;;;;;;;;;;5075886;28;20019;-64
2021/10/17 11:07:22;;;;;;;11.30;3.30;;;;;;;;;;5072752;28;20046;-66
2021/10/17 11:09:51;;;;;;;6.23;3.23;;;;;;;;;;5069606;28;20296;-67
2021/10/17 11:12:34;;;;;;;10.80;2.70;;;;;;;;;;5069200;28;20267;-68
2021/10/17 11:15:00;;;;;;;13.18;4.30;;;;;;;;;;5069759;28;20028;-68
2021/10/17 11:17:28;;;;;;;12.75;3.45;;;;;;;;;;5069722;28;20372;-67
2021/10/17 11:19:53;;;;;;;6.80;2.92;;;;;;;;;;5070220;28;20017;-65
2021/10/17 11:22:18;;;;;;;8.48;3.58;;;;;;;;;;5069694;28;20386;-65
2021/10/17 11:24:44;;;;;;;10.77;3.17;;;;;;;;;;5073090;28;20099;-65
2021/10/17 11:27:10;;;;;;;6.70;2.78;;;;;;;;;;5074160;28;20760;-65
2021/10/17 11:29:45;;;;;;;10.98;2.90;;;;;;;;;;5073523;28;20028;-66
2021/10/17 11:32:16;;;;;;;8.05;2.40;;;;;;;;;;5067037;28;20046;-64
2021/10/17 11:34:41;;;;;;;9.45;3.50;;;;;;;;;;5074102;28;20017;-65
2021/10/17 11:37:21;;;;;;;4.57;2.03;;;;;;;;;;5073849;28;20017;-65
2021/10/17 11:40:08;;;;;;;10.73;3.47;;;;;;;;;;5074066;28;20023;-66
2021/10/17 11:42:47;;;;;;;8.88;2.95;;;;;;;;;;5073536;28;20035;-66
2021/10/17 11:45:19;;;;;;;7.55;2.83;;;;;;;;;;5073065;28;20095;-65
2021/10/17 11:47:45;;;;;;;7.65;2.67;;;;;;;;;;5073721;28;20100;-65
2021/10/17 11:50:10;;;;;;;11.68;2.83;;;;;;;;;;5073591;28;20044;-65
2021/10/17 11:52:35;;;;;;;4.75;1.98;;;;;;;;;;5072969;28;20021;-65
2021/10/17 11:55:00;;;;;;;14.73;3.50;;;;;;;;;;5073427;28;20550;-65
2021/10/17 11:57:29;;;;;;;11.30;3.50;;;;;;;;;;5055496;28;20266;-64
2021/10/17 11:59:59;;;;;;;5.40;2.60;;;;;;;;;;5073471;28;20262;-65
2021/10/17 12:02:34;;;;;;;11.32;4.03;;;;;;;;;;5073146;28;20096;-65
2021/10/17 12:05:00;;;;;;;6.65;2.40;;;;;;;;;;5073513;28;20016;-65
2021/10/17 12:07:25;;;;;;;8.95;2.72;;;;;;;;;;5073490;28;20023;-65
2021/10/17 12:09:50;;;;;;;8.07;2.22;;;;;;;;;;5072790;28;20016;-65
2021/10/17 12:12:20;;;;;;;7.95;2.50;;;;;;;;;;5073180;28;20477;-66
2021/10/17 12:14:45;;;;;;;;;;;;;;;;;;5073630;28;20028;-66
2021/10/17 12:17:13;;;;;;;5.50;2.10;;;;;;;;;;5073418;28;19904;-65
2021/10/17 12:19:39;;;;;;;5.65;2.20;;;;;;;;;;5073112;28;20469;-67
2021/10/17 12:22:04;;;;;;;5.87;2.70;;;;;;;;;;5072778;28;20067;-67
2021/10/17 12:24:29;;;;;;;5.07;2.70;;;;;;;;;;5072551;28;20353;-67
2021/10/17 12:26:55;;;;;;;9.90;2.27;;;;;;;;;;5072912;28;20024;-67
2021/10/17 12:29:22;;;;;;;9.02;2.30;;;;;;;;;;5072878;28;20254;-67
2021/10/17 12:31:51;;;;;;;8.57;2.53;;;;;;;;;;5072653;28;20095;-67
2021/10/17 12:34:16;;;;;;;6.20;2.20;;;;;;;;;;5072763;28;20020;-65
2021/10/17 12:36:42;;;;;;;5.80;2.42;;;;;;;;;;5071614;28;20022;-65
2021/10/17 12:39:08;;;;;;;10.23;2.95;;;;;;;;;;5072492;28;20024;-66
2021/10/17 12:41:34;;;;;;;4.18;2.35;;;;;;;;;;5072554;28;20099;-65
2021/10/17 12:44:01;;;;;;;5.82;1.90;;;;;;;;;;5072325;28;20553;-65
2021/10/17 12:46:26;;;;;;;8.20;2.30;;;;;;;;;;5072713;28;20017;-65
2021/10/17 12:48:52;;;;;;;11.47;2.37;;;;;;;;;;5072403;28;20016;-64
2021/10/17 12:51:27;;;;;;;8.18;2.33;;;;;;;;;;5072512;28;20326;-64
2021/10/17 12:54:02;;;;;;;4.00;1.77;;;;;;;;;;5071678;28;20036;-64
2021/10/17 12:56:27;;;;;;;7.30;2.50;;;;;;;;;;5072662;28;20063;-66
2021/10/17 12:59:03;;;;;;;7.40;2.42;;;;;;;;;;5072561;28;20064;-65
2021/10/17 13:01:28;;;;;;;9.00;2.40;;;;;;;;;;5072594;28;20031;-65
2021/10/17 13:04:09;;;;;;;5.73;1.80;;;;;;;;;;5072001;28;20028;-66
2021/10/17 13:06:34;;;;;;;8.73;2.20;;;;;;;;;;5071903;28;20350;-65
2021/10/17 13:08:59;;;;;;;4.57;2.20;;;;;;;;;;5072136;28;20091;-65
2021/10/17 13:11:34;;;;;;;6.50;1.83;;;;;;;;;;5072156;28;20096;-65
2021/10/17 13:14:06;;;;;;;7.13;2.22;;;;;;;;;;5071840;28;20755;-66
2021/10/17 13:16:32;;;;;;;6.97;3.08;;;;;;;;;;5071837;28;20469;-65
2021/10/17 13:18:57;;;;;;;7.13;2.77;;;;;;;;;;5071664;28;20089;-66
2021/10/17 13:21:22;;;;;;;5.83;2.33;;;;;;;;;;5071612;28;20262;-66
2021/10/17 13:23:47;;;;;;;5.60;2.20;;;;;;;;;;5071552;28;20632;-66
2021/10/17 13:26:12;;;;;;;5.17;1.77;;;;;;;;;;5071933;28;20261;-65
2021/10/17 13:28:38;;;;;;;6.67;1.03;;;;;;;;;;5072104;28;20592;-64
2021/10/17 13:31:04;;;;;;;4.80;1.60;;;;;;;;;;5071332;28;20273;-65
2021/10/17 13:33:29;;;;;;;10.60;1.77;;;;;;;;;;5071384;28;20024;-66
2021/10/17 13:35:54;;;;;;;4.95;2.22;;;;;;;;;;5071222;28;20282;-64
2021/10/17 13:38:20;;;;;;;4.00;1.63;;;;;;;;;;5071597;28;20028;-65
2021/10/17 13:40:45;;;;;;;5.87;1.40;;;;;;;;;;5072011;28;20247;-64
2021/10/17 13:43:10;;;;;;;5.80;1.83;;;;;;;;;;5071356;28;20274;-66
2021/10/17 13:45:36;;;;;;;2.53;1.30;;;;;;;;;;5071131;28;20477;-66
2021/10/17 13:48:01;;;;;;;4.10;1.98;;;;;;;;;;5071392;28;20269;-65
2021/10/17 13:50:27;;;;;;;3.55;1.38;;;;;;;;;;5071339;28;20021;-65
2021/10/17 13:52:52;;;;;;;5.72;1.70;;;;;;;;;;5071105;28;20107;-66
2021/10/17 13:55:18;;;;;;;6.28;2.20;;;;;;;;;;5071264;28;20028;-66
2021/10/17 13:57:45;;;;;;;6.35;1.83;;;;;;;;;;5071235;28;20020;-65
2021/10/17 14:00:10;;;;;;;2.67;1.63;;;;;;;;;;5071059;28;20062;-65
2021/10/17 14:02:36;;;;;;;3.65;1.58;;;;;;;;;;5070700;28;20032;-66
2021/10/17 14:05:01;;;;;;;4.18;1.95;;;;;;;;;;5070921;28;20050;-66
2021/10/17 14:07:27;;;;;;;6.75;1.20;;;;;;;;;;5071021;28;20569;-65
2021/10/17 14:09:52;;;;;;;3.60;1.40;;;;;;;;;;5071092;28;20017;-64
2021/10/17 14:12:17;;;;;;;5.63;1.55;;;;;;;;;;5070705;28;20750;-65
2021/10/17 14:14:43;;;;;;;6.28;2.25;;;;;;;;;;5070643;28;20385;-65
2021/10/17 14:17:08;;;;;;;4.40;1.85;;;;;;;;;;5071130;28;20017;-66
2021/10/17 14:19:33;;;;;;;6.22;1.67;;;;;;;;;;5070615;28;20028;-65
2021/10/17 14:21:59;;;;;;;4.10;1.83;;;;;;;;;;5070840;28;20131;-66
2021/10/17 14:24:24;;;;;;;4.80;1.80;;;;;;;;;;5070731;28;20412;-65
2021/10/17 14:26:49;;;;;;;8.15;1.90;;;;;;;;;;5070937;28;20087;-66